Terminal Aerodrome Forecast
Issued by NWS Milwaukee/Sullivan, WI

Home | Current Version | Previous Version | Text Only | Print | Product List | Glossary On
Versions: 1 2 3 4 5 6 7 8 9 10 11 12 13 14 15 16 17 18 19 20 21 22 23 24 25 26 27 28 29
000
FTUS43 KMKX 040302 AAC
TAFMSN
TAF AMD
KMSN 040302Z 0403/0424 25008KT P6SM -SHRA VCTS SCT035 BKN060CB
      TEMPO 0403/0404 33025G40KT 5SM -TSRA BKN035CB
     FM040500 32007KT P6SM VCSH SCT035 BKN060
     FM040600 33007KT P6SM BKN070
     FM041300 35013G22KT P6SM BKN070
     FM042300 36011G19KT P6SM SCT070=

USA.gov is the U.S. government's official web portal to all federal, state and local government web resources and services.